sensor_id;sensor_type;location;lat;lon;timestamp;pressure;altitude;pressure_sealevel;temperature;humidity
74958;BME280;63741;42.624;26.276;2024-02-16T00:02:03;100198.81;;;9.18;67.48
74958;BME280;63741;42.624;26.276;2024-02-16T00:04:30;100192.34;;;9.09;68.48
74958;BME280;63741;42.624;26.276;2024-02-16T00:06:57;100195.34;;;9.18;68.21
74958;BME280;63741;42.624;26.276;2024-02-16T00:09:25;100199.41;;;9.50;67.35
74958;BME280;63741;42.624;26.276;2024-02-16T00:11:52;100192.78;;;9.30;67.52
74958;BME280;63741;42.624;26.276;2024-02-16T00:14:19;100197.50;;;9.25;68.21
74958;BME280;63741;42.624;26.276;2024-02-16T00:16:47;100200.16;;;9.25;68.67
74958;BME280;63741;42.624;26.276;2024-02-16T00:19:14;100196.69;;;8.96;68.26
74958;BME280;63741;42.624;26.276;2024-02-16T00:21:41;100198.09;;;9.16;68.10
74958;BME280;63741;42.624;26.276;2024-02-16T00:24:09;100191.31;;;9.12;68.35
74958;BME280;63741;42.624;26.276;2024-02-16T00:26:37;100177.56;;;9.07;68.95
74958;BME280;63741;42.624;26.276;2024-02-16T00:29:06;100169.94;;;9.02;68.35
74958;BME280;63741;42.624;26.276;2024-02-16T00:31:33;100188.00;;;9.08;68.96
74958;BME280;63741;42.624;26.276;2024-02-16T00:34:00;100185.72;;;9.31;67.71
74958;BME280;63741;42.624;26.276;2024-02-16T00:36:27;100176.97;;;9.16;69.00
74958;BME280;63741;42.624;26.276;2024-02-16T00:38:57;100178.19;;;9.10;68.13
74958;BME280;63741;42.624;26.276;2024-02-16T00:41:25;100173.31;;;9.04;68.38
74958;BME280;63741;42.624;26.276;2024-02-16T00:43:52;100177.41;;;9.23;67.81
74958;BME280;63741;42.624;26.276;2024-02-16T00:46:20;100188.41;;;9.02;67.88
74958;BME280;63741;42.624;26.276;2024-02-16T00:48:51;100191.00;;;9.17;68.28
74958;BME280;63741;42.624;26.276;2024-02-16T00:51:18;100186.97;;;8.97;68.67
74958;BME280;63741;42.624;26.276;2024-02-16T00:53:45;100189.31;;;9.16;68.47
74958;BME280;63741;42.624;26.276;2024-02-16T00:56:13;100188.44;;;9.15;68.35
74958;BME280;63741;42.624;26.276;2024-02-16T00:58:40;100190.47;;;9.11;68.00
74958;BME280;63741;42.624;26.276;2024-02-16T01:01:09;100191.31;;;9.12;67.00
74958;BME280;63741;42.624;26.276;2024-02-16T01:03:39;100187.59;;;9.15;66.89
74958;BME280;63741;42.624;26.276;2024-02-16T01:06:06;100195.44;;;9.16;67.61
74958;BME280;63741;42.624;26.276;2024-02-16T01:08:35;100196.03;;;9.07;67.17
74958;BME280;63741;42.624;26.276;2024-02-16T01:11:03;100183.78;;;8.92;68.33
74958;BME280;63741;42.624;26.276;2024-02-16T01:13:30;100189.31;;;9.16;67.88
74958;BME280;63741;42.624;26.276;2024-02-16T01:15:57;100177.16;;;9.13;66.77
74958;BME280;63741;42.624;26.276;2024-02-16T01:18:24;100173.22;;;8.92;67.71
74958;BME280;63741;42.624;26.276;2024-02-16T01:20:52;100183.22;;;8.86;66.88
74958;BME280;63741;42.624;26.276;2024-02-16T01:23:20;100170.03;;;8.86;67.34
74958;BME280;63741;42.624;26.276;2024-02-16T01:25:47;100176.41;;;8.97;67.10
74958;BME280;63741;42.624;26.276;2024-02-16T01:28:14;100164.91;;;9.12;66.13
74958;BME280;63741;42.624;26.276;2024-02-16T01:30:41;100172.72;;;9.14;65.33
74958;BME280;63741;42.624;26.276;2024-02-16T01:33:08;100167.38;;;9.01;66.00
74958;BME280;63741;42.624;26.276;2024-02-16T01:35:36;100161.81;;;9.20;65.75
74958;BME280;63741;42.624;26.276;2024-02-16T01:38:03;100164.25;;;9.08;65.34
74958;BME280;63741;42.624;26.276;2024-02-16T01:40:29;100173.81;;;9.38;65.42
74958;BME280;63741;42.624;26.276;2024-02-16T01:42:57;100159.13;;;9.34;65.73
74958;BME280;63741;42.624;26.276;2024-02-16T01:45:24;100165.72;;;9.27;64.83
74958;BME280;63741;42.624;26.276;2024-02-16T01:47:52;100164.06;;;9.11;64.31
74958;BME280;63741;42.624;26.276;2024-02-16T01:50:21;100160.13;;;8.90;65.67
74958;BME280;63741;42.624;26.276;2024-02-16T01:52:49;100152.75;;;9.09;65.89
74958;BME280;63741;42.624;26.276;2024-02-16T01:55:16;100161.25;;;8.86;65.59
74958;BME280;63741;42.624;26.276;2024-02-16T01:57:47;100166.34;;;8.89;65.82
74958;BME280;63741;42.624;26.276;2024-02-16T02:00:15;100146.81;;;9.06;65.93
74958;BME280;63741;42.624;26.276;2024-02-16T02:02:45;100137.94;;;9.21;64.89
74958;BME280;63741;42.624;26.276;2024-02-16T02:05:13;100149.09;;;9.12;65.39
74958;BME280;63741;42.624;26.276;2024-02-16T02:07:42;100141.22;;;9.25;64.48
74958;BME280;63741;42.624;26.276;2024-02-16T02:10:10;100153.50;;;9.11;65.11
74958;BME280;63741;42.624;26.276;2024-02-16T02:12:39;100140.13;;;9.00;64.18
74958;BME280;63741;42.624;26.276;2024-02-16T02:15:08;100137.28;;;9.18;63.94
74958;BME280;63741;42.624;26.276;2024-02-16T02:17:35;100127.28;;;9.23;64.24
74958;BME280;63741;42.624;26.276;2024-02-16T02:20:02;100118.97;;;9.56;63.84
74958;BME280;63741;42.624;26.276;2024-02-16T02:22:31;100120.56;;;9.31;64.08
74958;BME280;63741;42.624;26.276;2024-02-16T02:24:57;100111.72;;;9.18;64.86
74958;BME280;63741;42.624;26.276;2024-02-16T02:27:24;100123.69;;;9.24;64.43
74958;BME280;63741;42.624;26.276;2024-02-16T02:29:51;100126.38;;;8.95;64.71
74958;BME280;63741;42.624;26.276;2024-02-16T02:32:18;100143.81;;;8.83;64.68
74958;BME280;63741;42.624;26.276;2024-02-16T02:34:46;100136.28;;;8.92;66.33
74958;BME280;63741;42.624;26.276;2024-02-16T02:37:13;100134.41;;;8.94;66.27
74958;BME280;63741;42.624;26.276;2024-02-16T02:39:40;100131.56;;;8.97;65.21
74958;BME280;63741;42.624;26.276;2024-02-16T02:42:07;100120.63;;;9.03;64.70
74958;BME280;63741;42.624;26.276;2024-02-16T02:44:35;100130.88;;;9.22;64.51
74958;BME280;63741;42.624;26.276;2024-02-16T02:47:01;100133.84;;;9.03;64.54
74958;BME280;63741;42.624;26.276;2024-02-16T02:49:29;100119.66;;;9.18;64.05
74958;BME280;63741;42.624;26.276;2024-02-16T02:51:56;100125.34;;;9.39;64.08
74958;BME280;63741;42.624;26.276;2024-02-16T02:54:23;100121.03;;;9.24;63.45
74958;BME280;63741;42.624;26.276;2024-02-16T02:56:50;100117.97;;;9.44;63.52
74958;BME280;63741;42.624;26.276;2024-02-16T02:59:17;100134.28;;;9.36;63.33
74958;BME280;63741;42.624;26.276;2024-02-16T03:01:43;100135.44;;;9.32;62.20
74958;BME280;63741;42.624;26.276;2024-02-16T03:04:11;100138.16;;;9.04;62.77
74958;BME280;63741;42.624;26.276;2024-02-16T03:06:38;100140.81;;;9.31;62.45
74958;BME280;63741;42.624;26.276;2024-02-16T03:09:05;100149.44;;;9.06;62.91
74958;BME280;63741;42.624;26.276;2024-02-16T03:11:33;100153.72;;;8.94;63.38
74958;BME280;63741;42.624;26.276;2024-02-16T03:14:00;100152.50;;;8.85;64.35
74958;BME280;63741;42.624;26.276;2024-02-16T03:16:27;100160.28;;;9.01;64.26
74958;BME280;63741;42.624;26.276;2024-02-16T03:18:55;100152.81;;;9.22;62.75
74958;BME280;63741;42.624;26.276;2024-02-16T03:21:22;100147.53;;;9.22;62.45
74958;BME280;63741;42.624;26.276;2024-02-16T03:23:49;100139.69;;;8.94;63.18
74958;BME280;63741;42.624;26.276;2024-02-16T03:26:18;100147.88;;;8.89;62.88
74958;BME280;63741;42.624;26.276;2024-02-16T03:28:46;100158.50;;;9.16;62.37
74958;BME280;63741;42.624;26.276;2024-02-16T03:31:20;100159.78;;;9.38;62.74
74958;BME280;63741;42.624;26.276;2024-02-16T03:33:49;100158.06;;;9.36;61.63
74958;BME280;63741;42.624;26.276;2024-02-16T03:36:19;100150.91;;;9.39;63.51
74958;BME280;63741;42.624;26.276;2024-02-16T03:38:47;100167.63;;;9.25;62.26
74958;BME280;63741;42.624;26.276;2024-02-16T03:41:20;100172.72;;;9.14;63.99
74958;BME280;63741;42.624;26.276;2024-02-16T03:43:47;100188.56;;;9.14;62.20
74958;BME280;63741;42.624;26.276;2024-02-16T03:46:14;100190.81;;;9.05;62.70
74958;BME280;63741;42.624;26.276;2024-02-16T03:48:41;100217.13;;;9.07;62.82
74958;BME280;63741;42.624;26.276;2024-02-16T03:51:08;100214.28;;;9.10;61.65
74958;BME280;63741;42.624;26.276;2024-02-16T03:53:36;100216.84;;;9.11;61.25
74958;BME280;63741;42.624;26.276;2024-02-16T03:56:03;100221.72;;;9.32;61.05
74958;BME280;63741;42.624;26.276;2024-02-16T03:58:31;100225.31;;;9.17;60.96
74958;BME280;63741;42.624;26.276;2024-02-16T04:00:58;100222.50;;;8.91;62.40
74958;BME280;63741;42.624;26.276;2024-02-16T04:03:25;100225.34;;;9.02;61.92
74958;BME280;63741;42.624;26.276;2024-02-16T04:05:52;100224.19;;;8.92;63.34
74958;BME280;63741;42.624;26.276;2024-02-16T04:08:19;100220.13;;;9.01;62.06
74958;BME280;63741;42.624;26.276;2024-02-16T04:10:46;100229.09;;;9.13;61.43
74958;BME280;63741;42.624;26.276;2024-02-16T04:13:14;100231.06;;;9.09;61.53
74958;BME280;63741;42.624;26.276;2024-02-16T04:15:41;100224.22;;;9.06;62.48
74958;BME280;63741;42.624;26.276;2024-02-16T04:18:08;100239.28;;;9.04;62.09
74958;BME280;63741;42.624;26.276;2024-02-16T04:20:36;100226.81;;;8.92;62.03
74958;BME280;63741;42.624;26.276;2024-02-16T04:23:04;100224.66;;;8.99;62.14
74958;BME280;63741;42.624;26.276;2024-02-16T04:25:31;100246.97;;;8.79;62.79
74958;BME280;63741;42.624;26.276;2024-02-16T04:27:58;100232.75;;;8.81;61.46
74958;BME280;63741;42.624;26.276;2024-02-16T04:30:25;100236.34;;;8.95;61.17
74958;BME280;63741;42.624;26.276;2024-02-16T04:32:52;100244.72;;;8.87;61.33
74958;BME280;63741;42.624;26.276;2024-02-16T04:35:20;100249.81;;;9.04;59.93
74958;BME280;63741;42.624;26.276;2024-02-16T04:37:47;100238.59;;;9.01;60.56
74958;BME280;63741;42.624;26.276;2024-02-16T04:40:14;100237.09;;;8.82;62.65
74958;BME280;63741;42.624;26.276;2024-02-16T04:42:42;100258.78;;;9.02;61.30
74958;BME280;63741;42.624;26.276;2024-02-16T04:45:12;100258.22;;;9.25;61.71
74958;BME280;63741;42.624;26.276;2024-02-16T04:47:40;100263.31;;;9.14;60.94
74958;BME280;63741;42.624;26.276;2024-02-16T04:50:07;100241.81;;;8.92;61.01
74958;BME280;63741;42.624;26.276;2024-02-16T04:52:38;100238.16;;;8.80;62.09
74958;BME280;63741;42.624;26.276;2024-02-16T04:55:07;100266.59;;;9.03;61.60
74958;BME280;63741;42.624;26.276;2024-02-16T04:57:36;100265.16;;;8.83;61.43
74958;BME280;63741;42.624;26.276;2024-02-16T05:00:03;100275.06;;;8.80;61.27
74958;BME280;63741;42.624;26.276;2024-02-16T05:02:30;100264.06;;;9.02;61.32
74958;BME280;63741;42.624;26.276;2024-02-16T05:04:58;100265.72;;;8.74;62.09
74958;BME280;63741;42.624;26.276;2024-02-16T05:07:30;100286.22;;;8.99;61.31
74958;BME280;63741;42.624;26.276;2024-02-16T05:09:58;100282.22;;;8.92;61.57
74958;BME280;63741;42.624;26.276;2024-02-16T05:12:25;100287.72;;;8.89;62.01
74958;BME280;63741;42.624;26.276;2024-02-16T05:14:53;100300.91;;;8.89;60.51
74958;BME280;63741;42.624;26.276;2024-02-16T05:17:21;100296.88;;;8.98;60.07
74958;BME280;63741;42.624;26.276;2024-02-16T05:19:49;100309.09;;;8.84;60.93
74958;BME280;63741;42.624;26.276;2024-02-16T05:22:16;100293.06;;;8.88;61.82
74958;BME280;63741;42.624;26.276;2024-02-16T05:24:48;100307.22;;;9.01;61.34
74958;BME280;63741;42.624;26.276;2024-02-16T05:27:15;100294.84;;;8.73;60.71
74958;BME280;63741;42.624;26.276;2024-02-16T05:29:42;100289.31;;;8.92;61.89
74958;BME280;63741;42.624;26.276;2024-02-16T05:32:09;100290.19;;;9.06;60.25
74958;BME280;63741;42.624;26.276;2024-02-16T05:34:37;100297.88;;;8.95;60.78
74958;BME280;63741;42.624;26.276;2024-02-16T05:37:05;100294.56;;;8.92;62.21
74958;BME280;63741;42.624;26.276;2024-02-16T05:39:36;100273.00;;;8.85;62.51
74958;BME280;63741;42.624;26.276;2024-02-16T05:42:20;100279.47;;;8.79;62.15
74958;BME280;63741;42.624;26.276;2024-02-16T05:44:49;100279.47;;;8.79;61.31
74958;BME280;63741;42.624;26.276;2024-02-16T05:47:19;100286.38;;;8.82;61.57
74958;BME280;63741;42.624;26.276;2024-02-16T05:49:46;100287.44;;;8.94;60.66
74958;BME280;63741;42.624;26.276;2024-02-16T05:52:13;100296.94;;;8.96;60.99
74958;BME280;63741;42.624;26.276;2024-02-16T05:54:50;100274.53;;;8.89;61.80
74958;BME280;63741;42.624;26.276;2024-02-16T05:57:17;100309.28;;;8.51;62.64
74958;BME280;63741;42.624;26.276;2024-02-16T05:59:45;100286.44;;;8.66;62.72
74958;BME280;63741;42.624;26.276;2024-02-16T06:02:13;100294.16;;;8.69;61.67
74958;BME280;63741;42.624;26.276;2024-02-16T06:04:41;100310.22;;;8.95;62.21
74958;BME280;63741;42.624;26.276;2024-02-16T06:07:08;100290.63;;;8.99;61.49
74958;BME280;63741;42.624;26.276;2024-02-16T06:09:35;100304.66;;;8.85;60.79
74958;BME280;63741;42.624;26.276;2024-02-16T06:12:04;100324.09;;;8.98;61.28
74958;BME280;63741;42.624;26.276;2024-02-16T06:14:34;100311.91;;;8.96;60.93
74958;BME280;63741;42.624;26.276;2024-02-16T06:17:01;100323.19;;;8.83;60.32
74958;BME280;63741;42.624;26.276;2024-02-16T06:19:28;100323.41;;;8.80;59.84
74958;BME280;63741;42.624;26.276;2024-02-16T06:21:56;100332.91;;;8.83;61.17
74958;BME280;63741;42.624;26.276;2024-02-16T06:24:23;100336.38;;;8.83;60.57
74958;BME280;63741;42.624;26.276;2024-02-16T06:26:50;100329.53;;;8.81;60.72
74958;BME280;63741;42.624;26.276;2024-02-16T06:29:23;100342.59;;;8.82;61.29
74958;BME280;63741;42.624;26.276;2024-02-16T06:31:51;100348.88;;;8.96;61.26
74958;BME280;63741;42.624;26.276;2024-02-16T06:34:19;100347.88;;;8.82;60.84
74958;BME280;63741;42.624;26.276;2024-02-16T06:36:46;100356.25;;;8.75;60.57
74958;BME280;63741;42.624;26.276;2024-02-16T06:39:15;100357.69;;;8.80;59.80
74958;BME280;63741;42.624;26.276;2024-02-16T06:41:47;100358.25;;;8.85;60.69
74958;BME280;63741;42.624;26.276;2024-02-16T06:44:15;100358.47;;;8.97;60.38
74958;BME280;63741;42.624;26.276;2024-02-16T06:46:43;100355.09;;;9.09;60.72
74958;BME280;63741;42.624;26.276;2024-02-16T06:49:18;100368.38;;;8.93;60.90
74958;BME280;63741;42.624;26.276;2024-02-16T06:52:11;100359.31;;;8.97;60.75
74958;BME280;63741;42.624;26.276;2024-02-16T06:55:20;100359.69;;;8.91;59.88
74958;BME280;63741;42.624;26.276;2024-02-16T06:57:47;100357.56;;;8.98;60.41
74958;BME280;63741;42.624;26.276;2024-02-16T07:00:37;100375.50;;;9.21;59.95
74958;BME280;63741;42.624;26.276;2024-02-16T07:03:19;100373.53;;;9.25;59.99
74958;BME280;63741;42.624;26.276;2024-02-16T07:06:01;100374.94;;;9.16;59.17
74958;BME280;63741;42.624;26.276;2024-02-16T07:08:32;100369.47;;;9.48;61.08
74958;BME280;63741;42.624;26.276;2024-02-16T07:11:09;100362.78;;;9.56;58.49
74958;BME280;63741;42.624;26.276;2024-02-16T07:13:41;100359.56;;;9.37;59.48
74958;BME280;63741;42.624;26.276;2024-02-16T07:16:15;100360.88;;;9.30;59.97
74958;BME280;63741;42.624;26.276;2024-02-16T07:18:49;100360.78;;;9.31;59.06
74958;BME280;63741;42.624;26.276;2024-02-16T07:21:32;100378.81;;;9.39;60.19
74958;BME280;63741;42.624;26.276;2024-02-16T07:24:06;100380.50;;;9.54;58.97
74958;BME280;63741;42.624;26.276;2024-02-16T07:26:49;100392.19;;;9.36;59.35
74958;BME280;63741;42.624;26.276;2024-02-16T07:29:39;100387.50;;;9.55;58.95
74958;BME280;63741;42.624;26.276;2024-02-16T07:32:15;100396.84;;;9.47;59.34
74958;BME280;63741;42.624;26.276;2024-02-16T07:34:59;100389.66;;;9.49;58.66
74958;BME280;63741;42.624;26.276;2024-02-16T07:37:41;100399.88;;;9.69;58.91
74958;BME280;63741;42.624;26.276;2024-02-16T07:40:09;100406.56;;;9.75;57.46
74958;BME280;63741;42.624;26.276;2024-02-16T07:42:39;100410.22;;;9.86;58.27
74958;BME280;63741;42.624;26.276;2024-02-16T07:45:11;100403.91;;;9.89;57.90
74958;BME280;63741;42.624;26.276;2024-02-16T07:47:40;100415.88;;;9.80;58.50
74958;BME280;63741;42.624;26.276;2024-02-16T07:50:09;100403.88;;;10.03;57.54
74958;BME280;63741;42.624;26.276;2024-02-16T07:52:37;100428.16;;;9.53;58.67
74958;BME280;63741;42.624;26.276;2024-02-16T07:55:08;100404.88;;;9.74;57.75
74958;BME280;63741;42.624;26.276;2024-02-16T07:57:35;100417.19;;;10.02;59.22
74958;BME280;63741;42.624;26.276;2024-02-16T08:00:06;100414.06;;;10.24;57.38
74958;BME280;63741;42.624;26.276;2024-02-16T08:02:34;100413.50;;;10.33;58.54
74958;BME280;63741;42.624;26.276;2024-02-16T08:05:01;100416.03;;;10.34;57.19
74958;BME280;63741;42.624;26.276;2024-02-16T08:07:28;100421.34;;;10.61;55.47
74958;BME280;63741;42.624;26.276;2024-02-16T08:09:57;100426.03;;;10.44;56.28
74958;BME280;63741;42.624;26.276;2024-02-16T08:12:24;100416.44;;;10.55;56.92
74958;BME280;63741;42.624;26.276;2024-02-16T08:14:54;100411.16;;;10.82;55.35
74958;BME280;63741;42.624;26.276;2024-02-16T08:17:23;100422.19;;;11.02;55.02
74958;BME280;63741;42.624;26.276;2024-02-16T08:19:54;100421.03;;;11.06;55.24
74958;BME280;63741;42.624;26.276;2024-02-16T08:22:22;100422.72;;;11.07;55.84
74958;BME280;63741;42.624;26.276;2024-02-16T08:24:49;100423.06;;;11.15;54.49
74958;BME280;63741;42.624;26.276;2024-02-16T08:27:16;100426.75;;;11.00;55.35
74958;BME280;63741;42.624;26.276;2024-02-16T08:29:44;100418.97;;;10.30;56.45
74958;BME280;63741;42.624;26.276;2024-02-16T08:32:13;100423.00;;;10.21;57.58
74958;BME280;63741;42.624;26.276;2024-02-16T08:34:40;100433.34;;;10.53;57.10
74958;BME280;63741;42.624;26.276;2024-02-16T08:37:07;100430.81;;;10.78;57.95
74958;BME280;63741;42.624;26.276;2024-02-16T08:39:37;100428.19;;;10.51;56.57
74958;BME280;63741;42.624;26.276;2024-02-16T08:42:05;100431.84;;;10.63;56.44
74958;BME280;63741;42.624;26.276;2024-02-16T08:44:32;100436.81;;;10.26;57.87
74958;BME280;63741;42.624;26.276;2024-02-16T08:46:59;100440.91;;;10.32;58.25
74958;BME280;63741;42.624;26.276;2024-02-16T08:49:26;100433.59;;;10.50;56.66
74958;BME280;63741;42.624;26.276;2024-02-16T08:51:53;100441.91;;;10.71;57.87
74958;BME280;63741;42.624;26.276;2024-02-16T08:54:20;100450.78;;;10.97;56.56
74958;BME280;63741;42.624;26.276;2024-02-16T08:56:47;100442.22;;;11.06;55.45
74958;BME280;63741;42.624;26.276;2024-02-16T08:59:14;100439.16;;;10.99;56.20
74958;BME280;63741;42.624;26.276;2024-02-16T09:01:42;100446.50;;;10.54;56.53
74958;BME280;63741;42.624;26.276;2024-02-16T09:04:10;100456.31;;;10.52;56.66
74958;BME280;63741;42.624;26.276;2024-02-16T09:06:37;100448.16;;;10.70;56.24
74958;BME280;63741;42.624;26.276;2024-02-16T09:09:05;100440.69;;;10.76;55.83
74958;BME280;63741;42.624;26.276;2024-02-16T09:11:38;100445.00;;;10.77;56.70
74958;BME280;63741;42.624;26.276;2024-02-16T09:14:06;100443.38;;;11.02;55.30
74958;BME280;63741;42.624;26.276;2024-02-16T09:16:32;100455.28;;;10.82;55.76
74958;BME280;63741;42.624;26.276;2024-02-16T09:18:59;100450.97;;;10.67;56.58
74958;BME280;63741;42.624;26.276;2024-02-16T09:21:27;100451.81;;;10.81;55.93
74958;BME280;63741;42.624;26.276;2024-02-16T09:23:56;100445.34;;;11.12;55.46
74958;BME280;63741;42.624;26.276;2024-02-16T09:26:28;100452.13;;;11.42;54.45
74958;BME280;63741;42.624;26.276;2024-02-16T09:29:00;100439.78;;;11.94;54.40
74958;BME280;63741;42.624;26.276;2024-02-16T09:31:28;100457.31;;;12.33;52.86
74958;BME280;63741;42.624;26.276;2024-02-16T09:33:55;100442.78;;;12.38;53.51
74958;BME280;63741;42.624;26.276;2024-02-16T09:36:22;100448.59;;;11.94;54.31
74958;BME280;63741;42.624;26.276;2024-02-16T09:38:50;100443.81;;;12.73;52.34
74958;BME280;63741;42.624;26.276;2024-02-16T09:41:17;100444.69;;;13.32;51.16
74958;BME280;63741;42.624;26.276;2024-02-16T09:43:45;100446.31;;;13.69;50.92
74958;BME280;63741;42.624;26.276;2024-02-16T09:46:12;100457.34;;;13.86;50.81
74958;BME280;63741;42.624;26.276;2024-02-16T09:48:43;100452.28;;;13.02;52.17
74958;BME280;63741;42.624;26.276;2024-02-16T09:51:15;100463.53;;;13.16;52.53
74958;BME280;63741;42.624;26.276;2024-02-16T09:53:42;100454.00;;;12.42;54.07
74958;BME280;63741;42.624;26.276;2024-02-16T09:56:09;100451.72;;;12.61;54.14
74958;BME280;63741;42.624;26.276;2024-02-16T09:58:36;100449.75;;;12.39;54.81
74958;BME280;63741;42.624;26.276;2024-02-16T10:01:04;100452.69;;;11.73;56.40
74958;BME280;63741;42.624;26.276;2024-02-16T10:03:31;100452.84;;;11.97;56.76
74958;BME280;63741;42.624;26.276;2024-02-16T10:06:06;100452.19;;;12.06;56.56
74958;BME280;63741;42.624;26.276;2024-02-16T10:08:46;100452.19;;;12.06;55.84
74958;BME280;63741;42.624;26.276;2024-02-16T10:11:14;100457.13;;;11.47;57.64
74958;BME280;63741;42.624;26.276;2024-02-16T10:13:41;100452.53;;;11.23;58.84
74958;BME280;63741;42.624;26.276;2024-02-16T10:16:11;100450.44;;;11.41;58.57
74958;BME280;63741;42.624;26.276;2024-02-16T10:18:38;100448.97;;;11.37;58.34
74958;BME280;63741;42.624;26.276;2024-02-16T10:21:06;100446.78;;;11.56;59.02
74958;BME280;63741;42.624;26.276;2024-02-16T10:23:34;100455.53;;;11.70;58.09
74958;BME280;63741;42.624;26.276;2024-02-16T10:26:09;100455.59;;;11.82;58.60
74958;BME280;63741;42.624;26.276;2024-02-16T10:28:36;100454.16;;;11.51;58.86
74958;BME280;63741;42.624;26.276;2024-02-16T10:31:04;100441.69;;;11.79;58.91
74958;BME280;63741;42.624;26.276;2024-02-16T10:33:32;100444.63;;;12.49;58.31
74958;BME280;63741;42.624;26.276;2024-02-16T10:36:00;100439.97;;;12.53;57.76
74958;BME280;63741;42.624;26.276;2024-02-16T10:38:30;100444.59;;;12.62;56.88
74958;BME280;63741;42.624;26.276;2024-02-16T10:40:59;100438.66;;;12.58;56.02
74958;BME280;63741;42.624;26.276;2024-02-16T10:43:28;100439.63;;;12.57;57.08
74958;BME280;63741;42.624;26.276;2024-02-16T10:45:56;100443.25;;;12.56;57.67
74958;BME280;63741;42.624;26.276;2024-02-16T10:48:23;100437.09;;;12.56;56.57
74958;BME280;63741;42.624;26.276;2024-02-16T10:50:52;100443.75;;;12.25;57.14
74958;BME280;63741;42.624;26.276;2024-02-16T10:53:24;100440.78;;;12.29;57.30
74958;BME280;63741;42.624;26.276;2024-02-16T10:55:52;100439.88;;;12.78;56.51
74958;BME280;63741;42.624;26.276;2024-02-16T10:58:19;100440.81;;;13.01;56.75
74958;BME280;63741;42.624;26.276;2024-02-16T11:00:54;100448.63;;;13.73;56.00
74958;BME280;63741;42.624;26.276;2024-02-16T11:03:23;100442.81;;;13.79;54.73
74958;BME280;63741;42.624;26.276;2024-02-16T11:05:52;100430.88;;;14.07;55.40
74958;BME280;63741;42.624;26.276;2024-02-16T11:08:24;100442.28;;;14.75;52.41
74958;BME280;63741;42.624;26.276;2024-02-16T11:10:59;100446.28;;;15.02;51.45
74958;BME280;63741;42.624;26.276;2024-02-16T11:13:28;100441.72;;;14.27;53.38
74958;BME280;63741;42.624;26.276;2024-02-16T11:15:59;100446.59;;;14.87;51.89
74958;BME280;63741;42.624;26.276;2024-02-16T11:18:31;100426.84;;;14.35;52.81
74958;BME280;63741;42.624;26.276;2024-02-16T11:21:02;100434.97;;;14.88;52.64
74958;BME280;63741;42.624;26.276;2024-02-16T11:23:31;100433.56;;;15.05;51.09
74958;BME280;63741;42.624;26.276;2024-02-16T11:26:04;100432.50;;;15.17;51.14
74958;BME280;63741;42.624;26.276;2024-02-16T11:28:35;100430.59;;;14.10;52.71
74958;BME280;63741;42.624;26.276;2024-02-16T11:31:03;100423.66;;;14.64;51.44
74958;BME280;63741;42.624;26.276;2024-02-16T11:33:30;100411.88;;;14.01;52.13
74958;BME280;63741;42.624;26.276;2024-02-16T11:35:59;100418.16;;;13.66;55.24
74958;BME280;63741;42.624;26.276;2024-02-16T11:38:27;100410.41;;;13.52;54.80
74958;BME280;63741;42.624;26.276;2024-02-16T11:40:58;100419.44;;;13.27;55.23
74958;BME280;63741;42.624;26.276;2024-02-16T11:43:26;100410.06;;;14.01;53.93
74958;BME280;63741;42.624;26.276;2024-02-16T11:45:53;100413.22;;;14.72;52.59
74958;BME280;63741;42.624;26.276;2024-02-16T11:48:27;100413.88;;;14.64;52.81
74958;BME280;63741;42.624;26.276;2024-02-16T11:51:02;100414.13;;;14.50;51.49
74958;BME280;63741;42.624;26.276;2024-02-16T11:53:30;100414.53;;;15.10;51.38
74958;BME280;63741;42.624;26.276;2024-02-16T11:55:58;100409.97;;;14.03;52.53
74958;BME280;63741;42.624;26.276;2024-02-16T11:58:25;100414.53;;;13.78;54.54
74958;BME280;63741;42.624;26.276;2024-02-16T12:00:52;100406.63;;;14.44;52.39
74958;BME280;63741;42.624;26.276;2024-02-16T12:03:24;100407.13;;;15.13;50.99
74958;BME280;63741;42.624;26.276;2024-02-16T12:05:55;100414.91;;;15.26;50.10
74958;BME280;63741;42.624;26.276;2024-02-16T12:08:23;100410.44;;;13.97;52.13
74958;BME280;63741;42.624;26.276;2024-02-16T12:10:51;100416.72;;;13.73;53.46
74958;BME280;63741;42.624;26.276;2024-02-16T12:13:20;100405.56;;;13.57;54.28
74958;BME280;63741;42.624;26.276;2024-02-16T12:15:51;100405.34;;;14.05;53.41
74958;BME280;63741;42.624;26.276;2024-02-16T12:18:25;100397.78;;;14.44;52.34
74958;BME280;63741;42.624;26.276;2024-02-16T12:21:03;100402.56;;;14.72;52.19
74958;BME280;63741;42.624;26.276;2024-02-16T12:23:33;100404.94;;;14.32;52.31
74958;BME280;63741;42.624;26.276;2024-02-16T12:26:00;100398.91;;;14.30;52.25
74958;BME280;63741;42.624;26.276;2024-02-16T12:28:30;100397.63;;;13.68;54.00
74958;BME280;63741;42.624;26.276;2024-02-16T12:31:00;100396.38;;;13.27;54.87
74958;BME280;63741;42.624;26.276;2024-02-16T12:33:30;100399.31;;;13.69;53.85
74958;BME280;63741;42.624;26.276;2024-02-16T12:35:57;100396.28;;;13.51;53.97
74958;BME280;63741;42.624;26.276;2024-02-16T12:38:24;100404.00;;;13.65;55.45
74958;BME280;63741;42.624;26.276;2024-02-16T12:40:51;100399.06;;;13.61;54.51
74958;BME280;63741;42.624;26.276;2024-02-16T12:43:18;100391.41;;;12.99;56.12
74958;BME280;63741;42.624;26.276;2024-02-16T12:45:46;100401.97;;;13.11;55.20
74958;BME280;63741;42.624;26.276;2024-02-16T12:48:14;100405.22;;;12.32;57.77
74958;BME280;63741;42.624;26.276;2024-02-16T12:50:41;100397.53;;;12.40;57.42
74958;BME280;63741;42.624;26.276;2024-02-16T12:53:12;100394.81;;;12.77;56.76
74958;BME280;63741;42.624;26.276;2024-02-16T12:55:39;100394.59;;;12.80;56.90